首页
METAR-TAF:

METAR-TAF

机场 :

卢布林, 波兰

纬度: 51-13-55N, 经度: 22-41-25E, 海拔: 203米

当前天气观测

该预报发布于34分钟前的14:00 UTC
风速6节,风向西南
温度 1°C
湿度 93%
气压 1019 hPa
能見度: 8000

METAR: EPLB 261400Z 22006KT 8000 NSC 01/M00 Q1019

时间: 15:34 (14:34 UTC)

预报

该预报发布于3小时和4分钟前的11:30 UTC
预报有效从26日的 12点(UTC)到 26日的 21点(UTC)
风速4节,风向南转西南
能見度: 8000
成为
从 26日的 18点(UTC)到 26日的 21点(UTC)
能見度: 4000
多云层高于500英尺
轻雾

TAF: EPLB 261130Z 2612/2621 21004KT 8000 NSC BECMG 2618/2621 4000 BR BKN005

超过4000个机场的气象观测和天气预报(METAR&TAF报告)。

可查询的气象台以黄色和红色小点在地图上表示。

将鼠标移到小点上方,可查看气象台名称。

然后点击查看天气观测和预报。

如需切换地图:点击带黑十字的绿色按钮放大地图;点击带横线的绿色按钮缩小地图;或者点击绿色箭头查看邻近地区的地图。


METAR-TAF: